PWSweather.com
Personal Weather Stations
Station Observations

EtonMackayAU

Lat: -21.263, Lon: 148.975

Elevation: 106

Station Type: Davis Vantage Vue

http://aspgweather.com/cumulus/data.php

Latest ConditionsUpdated 9:41:01 PM GMT+10:10 Friday, Apr 19, 2019
Currently Today's Max Today's Min Today's Average
Temperature 69.8°F21.0°C 80.8°F27.1°C 68.2°F20.1°C 74.1°F23.4°C
Dew Point 61.2°F16.2°C 65.1°F18.4°C 60.1°F15.6°C 62.5°F16.9°C
Winds 1.8 mph S2.9 kmh S 19.1 mph -30.7 kmh - - 8.8 mph 14.2 kmh
Wind Gusts 2.7 mph4.3 kmh 25.5 mph41.0 kmh - -
Humidity 74% 84% 56% 68%
Pressure 30.02 in1016.6 mb 30.07 in1018.3 mb 29.97 in1014.9 mb -
Hour Temp Dew Point Humidity Winds Wind Gusts Pressure Precip Precip Rate Daily Precip Total
09:41 PM 69.8°F21.0°C 61.2°F16.2°C 74% 1.8 mph S2.9 kmh S 2.7 mph4.3 kmh 30.02 in1016.6 mb 0.00 in0.0 mm 0.00 in0.0 mm 0.00 in0.0 mm
09:36 PM 69.8°F21.0°C 61.2°F16.2°C 74% 2.3 mph S3.7 kmh S 3.8 mph6.1 kmh 30.02 in1016.6 mb 0.00 in0.0 mm 0.00 in0.0 mm 0.00 in0.0 mm
09:31 PM 70.2°F21.2°C 61.5°F16.4°C 74% 2.4 mph SSW3.9 kmh SSW 3.8 mph6.1 kmh 30.02 in1016.6 mb 0.00 in0.0 mm 0.00 in0.0 mm 0.00 in0.0 mm
09:26 PM 70.0°F21.1°C 61.3°F16.3°C 74% 2.1 mph SSW3.4 kmh SSW 3.8 mph6.1 kmh 30.02 in1016.6 mb 0.00 in0.0 mm 0.00 in0.0 mm 0.00 in0.0 mm
09:21 PM 70.2°F21.2°C 61.0°F16.1°C 73% 2.7 mph SSW4.3 kmh SSW 3.8 mph6.1 kmh 30.02 in1016.6 mb 0.00 in0.0 mm 0.00 in0.0 mm 0.00 in0.0 mm
09:16 PM 70.2°F21.2°C 61.0°F16.1°C 73% 2.5 mph SW4.0 kmh SW 3.8 mph6.1 kmh 30.02 in1016.6 mb 0.00 in0.0 mm 0.00 in0.0 mm 0.00 in0.0 mm
09:11 PM 70.2°F21.2°C 61.0°F16.1°C 73% 1.8 mph SW2.9 kmh SW 2.7 mph4.3 kmh 30.02 in1016.6 mb 0.00 in0.0 mm 0.00 in0.0 mm 0.00 in0.0 mm
08:51 PM 70.3°F21.3°C 61.2°F16.2°C 73% 2.0 mph S3.2 kmh S 3.8 mph6.1 kmh 30.02 in1016.6 mb 0.00 in0.0 mm 0.00 in0.0 mm 0.00 in0.0 mm
08:46 PM 70.3°F21.3°C 61.2°F16.2°C 73% 2.2 mph S3.5 kmh S 3.8 mph6.1 kmh 30.03 in1016.9 mb 0.00 in0.0 mm 0.00 in0.0 mm 0.00 in0.0 mm
08:41 PM 70.7°F21.5°C 61.5°F16.4°C 73% 2.4 mph S3.9 kmh S 3.8 mph6.1 kmh 30.03 in1016.9 mb 0.00 in0.0 mm 0.00 in0.0 mm 0.00 in0.0 mm
08:36 PM 70.7°F21.5°C 61.5°F16.4°C 73% 2.0 mph SSW3.2 kmh SSW 3.8 mph6.1 kmh 30.02 in1016.6 mb 0.00 in0.0 mm 0.00 in0.0 mm 0.00 in0.0 mm
08:26 PM 70.3°F21.3°C 61.2°F16.2°C 73% 2.2 mph S3.5 kmh S 3.8 mph6.1 kmh 30.02 in1016.6 mb 0.00 in0.0 mm 0.00 in0.0 mm 0.00 in0.0 mm
08:21 PM 70.3°F21.3°C 61.2°F16.2°C 73% 1.7 mph SSW2.7 kmh SSW 2.7 mph4.3 kmh 30.02 in1016.6 mb 0.00 in0.0 mm 0.00 in0.0 mm 0.00 in0.0 mm
08:16 PM 70.3°F21.3°C 60.8°F16.0°C 72% 3.4 mph SSW5.5 kmh SSW 6.3 mph10.1 kmh 30.02 in1016.6 mb 0.00 in0.0 mm 0.00 in0.0 mm 0.00 in0.0 mm
08:11 PM 70.7°F21.5°C 61.2°F16.2°C 72% 3.9 mph SSW6.3 kmh SSW 6.3 mph10.1 kmh 30.02 in1016.6 mb 0.00 in0.0 mm 0.00 in0.0 mm 0.00 in0.0 mm
08:01 PM 70.7°F21.5°C 60.8°F16.0°C 71% 2.9 mph SSW4.7 kmh SSW 5.2 mph8.4 kmh 30.02 in1016.6 mb 0.00 in0.0 mm 0.00 in0.0 mm 0.00 in0.0 mm
07:51 PM 70.7°F21.5°C 60.4°F15.8°C 70% 2.6 mph SSW4.2 kmh SSW 3.8 mph6.1 kmh 30.02 in1016.6 mb 0.00 in0.0 mm 0.00 in0.0 mm 0.00 in0.0 mm
07:46 PM 70.9°F21.6°C 60.6°F15.9°C 70% 2.5 mph SW4.0 kmh SW 3.8 mph6.1 kmh 30.02 in1016.6 mb 0.00 in0.0 mm 0.00 in0.0 mm 0.00 in0.0 mm
07:41 PM 70.9°F21.6°C 60.1°F15.6°C 69% 1.9 mph SW3.1 kmh SW 3.8 mph6.1 kmh 30.02 in1016.6 mb 0.00 in0.0 mm 0.00 in0.0 mm 0.00 in0.0 mm
07:36 PM 70.9°F21.6°C 60.1°F15.6°C 69% 1.3 mph SW2.1 kmh SW 3.8 mph6.1 kmh 30.02 in1016.6 mb 0.00 in0.0 mm 0.00 in0.0 mm 0.00 in0.0 mm
07:31 PM 70.9°F21.6°C 60.1°F15.6°C 69% 1.2 mph SW1.9 kmh SW 2.7 mph4.3 kmh 30.01 in1016.3 mb 0.00 in0.0 mm 0.00 in0.0 mm 0.00 in0.0 mm
07:26 PM 70.9°F21.6°C 60.1°F15.6°C 69% 1.6 mph SW2.6 kmh SW 2.7 mph4.3 kmh 30.01 in1016.3 mb 0.00 in0.0 mm 0.00 in0.0 mm 0.00 in0.0 mm
07:21 PM 70.9°F21.6°C 60.1°F15.6°C 69% 2.2 mph SW3.5 kmh SW 2.7 mph4.3 kmh 30.01 in1016.3 mb 0.00 in0.0 mm 0.00 in0.0 mm 0.00 in0.0 mm
07:16 PM 71.1°F21.7°C 60.3°F15.7°C 69% 2.7 mph SSW4.3 kmh SSW 2.7 mph4.3 kmh 30.01 in1016.3 mb 0.00 in0.0 mm 0.00 in0.0 mm 0.00 in0.0 mm
07:11 PM 71.2°F21.8°C 60.4°F15.8°C 69% 3.9 mph S6.3 kmh S 5.2 mph8.4 kmh 30.01 in1016.3 mb 0.00 in0.0 mm 0.00 in0.0 mm 0.00 in0.0 mm
07:06 PM 71.4°F21.9°C 60.6°F15.9°C 69% 4.9 mph SSE7.9 kmh SSE 6.3 mph10.1 kmh 30.01 in1016.3 mb 0.00 in0.0 mm 0.00 in0.0 mm 0.00 in0.0 mm
07:01 PM 71.4°F21.9°C 60.6°F15.9°C 69% 4.7 mph SSE7.6 kmh SSE 6.3 mph10.1 kmh 30.00 in1015.9 mb 0.00 in0.0 mm 0.00 in0.0 mm 0.00 in0.0 mm
06:56 PM 71.4°F21.9°C 60.3°F15.7°C 68% 4.4 mph SSE7.1 kmh SSE 5.2 mph8.4 kmh 30.00 in1015.9 mb 0.00 in0.0 mm 0.00 in0.0 mm 0.00 in0.0 mm
06:51 PM 71.4°F21.9°C 60.3°F15.7°C 68% 4.0 mph SSE6.4 kmh SSE 5.2 mph8.4 kmh 30.00 in1015.9 mb 0.00 in0.0 mm 0.00 in0.0 mm 0.00 in0.0 mm
06:46 PM 71.4°F21.9°C 60.6°F15.9°C 69% 4.4 mph SSE7.1 kmh SSE 5.2 mph8.4 kmh 30.00 in1015.9 mb 0.00 in0.0 mm 0.00 in0.0 mm 0.00 in0.0 mm
06:41 PM 71.4°F21.9°C 60.6°F15.9°C 69% 4.9 mph SSE7.9 kmh SSE 6.3 mph10.1 kmh 30.00 in1015.9 mb 0.00 in0.0 mm 0.00 in0.0 mm 0.00 in0.0 mm
06:36 PM 71.4°F21.9°C 61.2°F16.2°C 70% 5.0 mph SSE8.0 kmh SSE 6.3 mph10.1 kmh 30.00 in1015.9 mb 0.00 in0.0 mm 0.00 in0.0 mm 0.00 in0.0 mm
06:31 PM 71.6°F22.0°C 61.3°F16.3°C 70% 5.3 mph SSE8.5 kmh SSE 7.8 mph12.6 kmh 30.00 in1015.9 mb 0.00 in0.0 mm 0.00 in0.0 mm 0.00 in0.0 mm
06:26 PM 71.6°F22.0°C 61.3°F16.3°C 70% 5.7 mph SE9.2 kmh SE 7.8 mph12.6 kmh 30.00 in1015.9 mb 0.00 in0.0 mm 0.00 in0.0 mm 0.00 in0.0 mm
06:21 PM 72.0°F22.2°C 62.1°F16.7°C 71% 5.6 mph SE9.0 kmh SE 7.8 mph12.6 kmh 30.00 in1015.9 mb 0.00 in0.0 mm 0.00 in0.0 mm 0.00 in0.0 mm
06:16 PM 72.0°F22.2°C 62.1°F16.7°C 71% 5.8 mph SSE9.3 kmh SSE 7.8 mph12.6 kmh 30.00 in1015.9 mb 0.00 in0.0 mm 0.00 in0.0 mm 0.00 in0.0 mm
06:11 PM 72.3°F22.4°C 61.9°F16.6°C 70% 6.5 mph SSE10.5 kmh SSE 7.8 mph12.6 kmh 29.99 in1015.6 mb 0.00 in0.0 mm 0.00 in0.0 mm 0.00 in0.0 mm
06:06 PM 72.5°F22.5°C 62.1°F16.7°C 70% 6.1 mph SSE9.8 kmh SSE 7.8 mph12.6 kmh 29.99 in1015.6 mb 0.00 in0.0 mm 0.00 in0.0 mm 0.00 in0.0 mm
06:01 PM 72.5°F22.5°C 61.7°F16.5°C 69% 6.4 mph SSE10.3 kmh SSE 7.8 mph12.6 kmh 29.99 in1015.6 mb 0.00 in0.0 mm 0.00 in0.0 mm 0.00 in0.0 mm
05:56 PM 72.9°F22.7°C 61.7°F16.5°C 68% 7.2 mph SSE11.6 kmh SSE 8.9 mph14.3 kmh 29.99 in1015.6 mb 0.00 in0.0 mm 0.00 in0.0 mm 0.00 in0.0 mm
05:51 PM 73.4°F23.0°C 61.7°F16.5°C 67% 6.9 mph SSE11.1 kmh SSE 8.9 mph14.3 kmh 29.99 in1015.6 mb 0.00 in0.0 mm 0.00 in0.0 mm 0.00 in0.0 mm
05:46 PM 73.8°F23.2°C 62.1°F16.7°C 67% 6.6 mph SSE10.6 kmh SSE 10.3 mph16.6 kmh 29.99 in1015.6 mb 0.00 in0.0 mm 0.00 in0.0 mm 0.00 in0.0 mm
05:41 PM 74.1°F23.4°C 61.5°F16.4°C 65% 6.1 mph SE9.8 kmh SE 10.3 mph16.6 kmh 29.99 in1015.6 mb 0.00 in0.0 mm 0.00 in0.0 mm 0.00 in0.0 mm
05:36 PM 74.7°F23.7°C 61.7°F16.5°C 64% 5.4 mph SSE8.7 kmh SSE 6.3 mph10.1 kmh 29.99 in1015.6 mb 0.00 in0.0 mm 0.00 in0.0 mm 0.00 in0.0 mm
05:31 PM 75.0°F23.9°C 61.5°F16.4°C 63% 6.7 mph SE10.8 kmh SE 10.3 mph16.6 kmh 29.99 in1015.6 mb 0.00 in0.0 mm 0.00 in0.0 mm 0.00 in0.0 mm
05:26 PM 75.7°F24.3°C 61.7°F16.5°C 62% 7.7 mph SSE12.4 kmh SSE 10.3 mph16.6 kmh 29.99 in1015.6 mb 0.00 in0.0 mm 0.00 in0.0 mm 0.00 in0.0 mm
05:21 PM 75.9°F24.4°C 61.5°F16.4°C 61% 8.4 mph SSE13.5 kmh SSE 11.4 mph18.3 kmh 29.99 in1015.6 mb 0.00 in0.0 mm 0.00 in0.0 mm 0.00 in0.0 mm
05:16 PM 76.3°F24.6°C 61.3°F16.3°C 60% 9.9 mph SE15.9 kmh SE 13.0 mph20.9 kmh 29.99 in1015.6 mb 0.00 in0.0 mm 0.00 in0.0 mm 0.00 in0.0 mm
05:11 PM 76.6°F24.8°C 61.2°F16.2°C 59% 8.9 mph SE14.3 kmh SE 13.0 mph20.9 kmh 29.99 in1015.6 mb 0.00 in0.0 mm 0.00 in0.0 mm 0.00 in0.0 mm
05:06 PM 77.0°F25.0°C 61.0°F16.1°C 58% 8.5 mph SE13.7 kmh SE 10.3 mph16.6 kmh 29.99 in1015.6 mb 0.00 in0.0 mm 0.00 in0.0 mm 0.00 in0.0 mm
05:01 PM 77.2°F25.1°C 61.2°F16.2°C 58% 8.8 mph SE14.2 kmh SE 14.1 mph22.7 kmh 29.99 in1015.6 mb 0.00 in0.0 mm 0.00 in0.0 mm 0.00 in0.0 mm
04:56 PM 77.4°F25.2°C 61.3°F16.3°C 58% 8.8 mph SE14.2 kmh SE 14.1 mph22.7 kmh 29.99 in1015.6 mb 0.00 in0.0 mm 0.00 in0.0 mm 0.00 in0.0 mm
04:51 PM 77.5°F25.3°C 61.5°F16.4°C 58% 9.8 mph SE15.8 kmh SE 13.0 mph20.9 kmh 29.99 in1015.6 mb 0.00 in0.0 mm 0.00 in0.0 mm 0.00 in0.0 mm
04:46 PM 77.5°F25.3°C 60.6°F15.9°C 56% 10.1 mph SE16.3 kmh SE 14.1 mph22.7 kmh 29.99 in1015.6 mb 0.00 in0.0 mm 0.00 in0.0 mm 0.00 in0.0 mm
04:41 PM 77.7°F25.4°C 60.8°F16.0°C 56% 12.1 mph SE19.5 kmh SE 15.4 mph24.8 kmh 29.99 in1015.6 mb 0.00 in0.0 mm 0.00 in0.0 mm 0.00 in0.0 mm
04:36 PM 78.1°F25.6°C 61.2°F16.2°C 56% 12.6 mph SSE20.3 kmh SSE 15.4 mph24.8 kmh 29.98 in1015.2 mb 0.00 in0.0 mm 0.00 in0.0 mm 0.00 in0.0 mm
04:31 PM 78.3°F25.7°C 61.7°F16.5°C 57% 11.9 mph SSE19.2 kmh SSE 14.1 mph22.7 kmh 29.98 in1015.2 mb 0.00 in0.0 mm 0.00 in0.0 mm 0.00 in0.0 mm
04:26 PM 78.3°F25.7°C 62.2°F16.8°C 58% 11.5 mph SE18.5 kmh SE 14.1 mph22.7 kmh 29.98 in1015.2 mb 0.00 in0.0 mm 0.00 in0.0 mm 0.00 in0.0 mm
04:21 PM 78.6°F25.9°C 62.6°F17.0°C 58% 10.4 mph SE16.7 kmh SE 14.1 mph22.7 kmh 29.98 in1015.2 mb 0.00 in0.0 mm 0.00 in0.0 mm 0.00 in0.0 mm
04:16 PM 78.6°F25.9°C 62.6°F17.0°C 58% 10.7 mph SE17.2 kmh SE 16.5 mph26.6 kmh 29.98 in1015.2 mb 0.00 in0.0 mm 0.00 in0.0 mm 0.00 in0.0 mm
04:11 PM 78.8°F26.0°C 62.8°F17.1°C 58% 11.0 mph SE17.7 kmh SE 16.5 mph26.6 kmh 29.98 in1015.2 mb 0.00 in0.0 mm 0.00 in0.0 mm 0.00 in0.0 mm
04:06 PM 78.8°F26.0°C 62.2°F16.8°C 57% 10.9 mph SSE17.5 kmh SSE 16.5 mph26.6 kmh 29.97 in1014.9 mb 0.00 in0.0 mm 0.00 in0.0 mm 0.00 in0.0 mm
04:01 PM 78.8°F26.0°C 61.7°F16.5°C 56% 12.1 mph SSE19.5 kmh SSE 18.1 mph29.1 kmh 29.98 in1015.2 mb 0.00 in0.0 mm 0.00 in0.0 mm 0.00 in0.0 mm
03:56 PM 78.8°F26.0°C 62.2°F16.8°C 57% 11.8 mph SSE19.0 kmh SSE 18.1 mph29.1 kmh 29.97 in1014.9 mb 0.00 in0.0 mm 0.00 in0.0 mm 0.00 in0.0 mm
03:51 PM 79.0°F26.1°C 63.0°F17.2°C 58% 11.1 mph SE17.9 kmh SE 14.1 mph22.7 kmh 29.97 in1014.9 mb 0.00 in0.0 mm 0.00 in0.0 mm 0.00 in0.0 mm
03:46 PM 78.8°F26.0°C 62.8°F17.1°C 58% 14.6 mph SE23.5 kmh SE 18.1 mph29.1 kmh 29.97 in1014.9 mb 0.00 in0.0 mm 0.00 in0.0 mm 0.00 in0.0 mm
03:41 PM 78.6°F25.9°C 62.6°F17.0°C 58% 15.4 mph SE24.8 kmh SE 19.3 mph31.1 kmh 29.97 in1014.9 mb 0.00 in0.0 mm 0.00 in0.0 mm 0.00 in0.0 mm
03:36 PM 79.0°F26.1°C 61.9°F16.6°C 56% 13.9 mph SE22.4 kmh SE 19.3 mph31.1 kmh 29.97 in1014.9 mb 0.00 in0.0 mm 0.00 in0.0 mm 0.00 in0.0 mm
03:31 PM 79.0°F26.1°C 63.0°F17.2°C 58% 15.2 mph SE24.5 kmh SE 20.6 mph33.2 kmh 29.97 in1014.9 mb 0.00 in0.0 mm 0.00 in0.0 mm 0.00 in0.0 mm
03:26 PM 79.0°F26.1°C 63.0°F17.2°C 58% 14.1 mph SE22.7 kmh SE 20.6 mph33.2 kmh 29.97 in1014.9 mb 0.00 in0.0 mm 0.00 in0.0 mm 0.00 in0.0 mm
03:21 PM 79.2°F26.2°C 62.6°F17.0°C 57% 15.3 mph SE24.6 kmh SE 22.8 mph36.7 kmh 29.97 in1014.9 mb 0.00 in0.0 mm 0.00 in0.0 mm 0.00 in0.0 mm
03:16 PM 79.2°F26.2°C 63.1°F17.3°C 58% 17.8 mph SE28.6 kmh SE 22.8 mph36.7 kmh 29.97 in1014.9 mb 0.00 in0.0 mm 0.00 in0.0 mm 0.00 in0.0 mm
03:11 PM 79.7°F26.5°C 64.0°F17.8°C 59% 15.3 mph SE24.6 kmh SE 21.7 mph34.9 kmh 29.97 in1014.9 mb 0.00 in0.0 mm 0.00 in0.0 mm 0.00 in0.0 mm
03:06 PM 79.7°F26.5°C 64.0°F17.8°C 59% 13.9 mph SE22.4 kmh SE 18.1 mph29.1 kmh 29.97 in1014.9 mb 0.00 in0.0 mm 0.00 in0.0 mm 0.00 in0.0 mm
03:01 PM 79.7°F26.5°C 63.1°F17.3°C 57% 15.8 mph SE25.4 kmh SE 19.3 mph31.1 kmh 29.97 in1014.9 mb 0.00 in0.0 mm 0.00 in0.0 mm 0.00 in0.0 mm
02:56 PM 79.5°F26.4°C 63.5°F17.5°C 58% 16.9 mph SE27.2 kmh SE 20.6 mph33.2 kmh 29.97 in1014.9 mb 0.00 in0.0 mm 0.00 in0.0 mm 0.00 in0.0 mm
02:51 PM 79.5°F26.4°C 63.0°F17.2°C 57% 16.8 mph SE27.0 kmh SE 20.6 mph33.2 kmh 29.97 in1014.9 mb 0.00 in0.0 mm 0.00 in0.0 mm 0.00 in0.0 mm
02:46 PM 79.2°F26.2°C 63.1°F17.3°C 58% 15.5 mph SE24.9 kmh SE 19.3 mph31.1 kmh 29.97 in1014.9 mb 0.00 in0.0 mm 0.00 in0.0 mm 0.00 in0.0 mm
02:41 PM 79.9°F26.6°C 63.9°F17.7°C 58% 13.9 mph SE22.4 kmh SE 18.1 mph29.1 kmh 29.97 in1014.9 mb 0.00 in0.0 mm 0.00 in0.0 mm 0.00 in0.0 mm
02:36 PM 79.9°F26.6°C 64.2°F17.9°C 59% 13.4 mph SE21.6 kmh SE 19.3 mph31.1 kmh 29.97 in1014.9 mb 0.00 in0.0 mm 0.00 in0.0 mm 0.00 in0.0 mm
02:31 PM 79.9°F26.6°C 64.2°F17.9°C 59% 14.6 mph SE23.5 kmh SE 19.3 mph31.1 kmh 29.97 in1014.9 mb 0.00 in0.0 mm 0.00 in0.0 mm 0.00 in0.0 mm
02:26 PM 79.2°F26.2°C 63.1°F17.3°C 58% 17.7 mph SE28.5 kmh SE 20.6 mph33.2 kmh 29.97 in1014.9 mb 0.00 in0.0 mm 0.00 in0.0 mm 0.00 in0.0 mm
02:21 PM 78.8°F26.0°C 63.7°F17.6°C 60% 18.4 mph SE29.6 kmh SE 21.7 mph34.9 kmh 29.98 in1015.2 mb 0.00 in0.0 mm 0.00 in0.0 mm 0.00 in0.0 mm
02:16 PM 79.0°F26.1°C 63.5°F17.5°C 59% 15.5 mph SSE24.9 kmh SSE 21.7 mph34.9 kmh 29.98 in1015.2 mb 0.00 in0.0 mm 0.00 in0.0 mm 0.00 in0.0 mm
02:11 PM 79.9°F26.6°C 64.2°F17.9°C 59% 13.5 mph SE21.7 kmh SE 16.5 mph26.6 kmh 29.98 in1015.2 mb 0.00 in0.0 mm 0.00 in0.0 mm 0.00 in0.0 mm
02:06 PM 79.7°F26.5°C 63.1°F17.3°C 57% 14.3 mph SE23.0 kmh SE 19.3 mph31.1 kmh 29.98 in1015.2 mb 0.00 in0.0 mm 0.00 in0.0 mm 0.00 in0.0 mm
02:01 PM 80.2°F26.8°C 64.6°F18.1°C 59% 14.1 mph SE22.7 kmh SE 19.3 mph31.1 kmh 29.99 in1015.6 mb 0.00 in0.0 mm 0.00 in0.0 mm 0.00 in0.0 mm
01:56 PM 80.1°F26.7°C 64.4°F18.0°C 59% 16.5 mph SE26.6 kmh SE 21.7 mph34.9 kmh 29.99 in1015.6 mb 0.00 in0.0 mm 0.00 in0.0 mm 0.00 in0.0 mm
01:51 PM 79.7°F26.5°C 64.0°F17.8°C 59% 18.9 mph SE30.4 kmh SE 21.7 mph34.9 kmh 29.99 in1015.6 mb 0.00 in0.0 mm 0.00 in0.0 mm 0.00 in0.0 mm
01:46 PM 80.1°F26.7°C 63.5°F17.5°C 57% 17.1 mph SE27.5 kmh SE 21.7 mph34.9 kmh 29.99 in1015.6 mb 0.00 in0.0 mm 0.00 in0.0 mm 0.00 in0.0 mm
01:41 PM 80.4°F26.9°C 64.2°F17.9°C 58% 15.9 mph SE25.6 kmh SE 21.7 mph34.9 kmh 29.99 in1015.6 mb 0.00 in0.0 mm 0.00 in0.0 mm 0.00 in0.0 mm
01:36 PM 80.8°F27.1°C 64.0°F17.8°C 57% 15.7 mph SE25.3 kmh SE 20.6 mph33.2 kmh 29.99 in1015.6 mb 0.00 in0.0 mm 0.00 in0.0 mm 0.00 in0.0 mm
01:31 PM 80.8°F27.1°C 64.0°F17.8°C 57% 14.5 mph SE23.3 kmh SE 20.6 mph33.2 kmh 29.99 in1015.6 mb 0.00 in0.0 mm 0.00 in0.0 mm 0.00 in0.0 mm
01:26 PM 80.2°F26.8°C 64.6°F18.1°C 59% 13.5 mph SE21.7 kmh SE 16.5 mph26.6 kmh 29.99 in1015.6 mb 0.00 in0.0 mm 0.00 in0.0 mm 0.00 in0.0 mm
01:21 PM 80.1°F26.7°C 63.9°F17.7°C 58% 13.6 mph SE21.9 kmh SE 16.5 mph26.6 kmh 29.99 in1015.6 mb 0.00 in0.0 mm 0.00 in0.0 mm 0.00 in0.0 mm
01:16 PM 79.9°F26.6°C 64.2°F17.9°C 59% 16.7 mph SE26.9 kmh SE 21.7 mph34.9 kmh 30.00 in1015.9 mb 0.00 in0.0 mm 0.00 in0.0 mm 0.00 in0.0 mm
01:11 PM 80.4°F26.9°C 64.2°F17.9°C 58% 16.9 mph SE27.2 kmh SE 21.7 mph34.9 kmh 30.00 in1015.9 mb 0.00 in0.0 mm 0.00 in0.0 mm 0.00 in0.0 mm
01:06 PM 80.1°F26.7°C 63.9°F17.7°C 58% 15.5 mph SE24.9 kmh SE 20.6 mph33.2 kmh 30.00 in1015.9 mb 0.00 in0.0 mm 0.00 in0.0 mm 0.00 in0.0 mm
01:01 PM 80.2°F26.8°C 65.1°F18.4°C 60% 14.9 mph SE24.0 kmh SE 20.6 mph33.2 kmh 30.00 in1015.9 mb 0.00 in0.0 mm 0.00 in0.0 mm 0.00 in0.0 mm
12:56 PM 80.1°F26.7°C 64.4°F18.0°C 59% 15.8 mph SE25.4 kmh SE 19.3 mph31.1 kmh 30.01 in1016.3 mb 0.00 in0.0 mm 0.00 in0.0 mm 0.00 in0.0 mm
12:51 PM 79.9°F26.6°C 64.2°F17.9°C 59% 15.7 mph SE25.3 kmh SE 19.3 mph31.1 kmh 30.01 in1016.3 mb 0.00 in0.0 mm 0.00 in0.0 mm 0.00 in0.0 mm
12:46 PM 80.1°F26.7°C 63.5°F17.5°C 57% 15.5 mph SE24.9 kmh SE 20.6 mph33.2 kmh 30.01 in1016.3 mb 0.00 in0.0 mm 0.00 in0.0 mm 0.00 in0.0 mm
12:41 PM 79.9°F26.6°C 63.3°F17.4°C 57% 13.6 mph SE21.9 kmh SE 20.6 mph33.2 kmh 30.01 in1016.3 mb 0.00 in0.0 mm 0.00 in0.0 mm 0.00 in0.0 mm
12:36 PM 79.0°F26.1°C 64.8°F18.2°C 62% 6.3 mph SE10.1 kmh SE 19.3 mph31.1 kmh 30.01 in1016.3 mb 0.00 in0.0 mm 0.00 in0.0 mm 0.00 in0.0 mm
12:34 PM 79.0°F26.1°C 63.0°F17.2°C 58% 16.9 mph SE27.2 kmh SE 19.3 mph31.1 kmh 30.01 in1016.3 mb 0.00 in0.0 mm 0.00 in0.0 mm 0.00 in0.0 mm
12:26 PM 79.0°F26.1°C 63.5°F17.5°C 59% 15.2 mph SE24.5 kmh SE 21.7 mph34.9 kmh 30.02 in1016.6 mb 0.00 in0.0 mm 0.00 in0.0 mm 0.00 in0.0 mm
12:21 PM 79.7°F26.5°C 63.7°F17.6°C 58% 13.8 mph SE22.2 kmh SE 15.4 mph24.8 kmh 30.02 in1016.6 mb 0.00 in0.0 mm 0.00 in0.0 mm 0.00 in0.0 mm
12:16 PM 79.7°F26.5°C 63.7°F17.6°C 58% 17.1 mph SE27.5 kmh SE 19.3 mph31.1 kmh 30.02 in1016.6 mb 0.00 in0.0 mm 0.00 in0.0 mm 0.00 in0.0 mm
12:11 PM 79.9°F26.6°C 63.9°F17.7°C 58% 16.1 mph SE25.9 kmh SE 19.3 mph31.1 kmh 30.02 in1016.6 mb 0.00 in0.0 mm 0.00 in0.0 mm 0.00 in0.0 mm
12:06 PM 80.2°F26.8°C 65.1°F18.4°C 60% 15.7 mph SE25.3 kmh SE 21.7 mph34.9 kmh 30.02 in1016.6 mb 0.00 in0.0 mm 0.00 in0.0 mm 0.00 in0.0 mm
12:01 PM 80.1°F26.7°C 64.4°F18.0°C 59% 15.2 mph SSE24.5 kmh SSE 21.7 mph34.9 kmh 30.02 in1016.6 mb 0.00 in0.0 mm 0.00 in0.0 mm 0.00 in0.0 mm
11:56 AM 80.2°F26.8°C 64.0°F17.8°C 58% 12.8 mph SE20.6 kmh SE 21.7 mph34.9 kmh 30.03 in1016.9 mb 0.00 in0.0 mm 0.00 in0.0 mm 0.00 in0.0 mm
11:51 AM 79.9°F26.6°C 63.9°F17.7°C 58% 13.8 mph SE22.2 kmh SE 19.3 mph31.1 kmh 30.03 in1016.9 mb 0.00 in0.0 mm 0.00 in0.0 mm 0.00 in0.0 mm
11:46 AM 79.2°F26.2°C 64.0°F17.8°C 60% 17.4 mph SE28.0 kmh SE 22.8 mph36.7 kmh 30.04 in1017.3 mb 0.00 in0.0 mm 0.00 in0.0 mm 0.00 in0.0 mm
11:41 AM 78.8°F26.0°C 63.7°F17.6°C 60% 19.1 mph SE30.7 kmh SE 25.5 mph41.0 kmh 30.04 in1017.3 mb 0.00 in0.0 mm 0.00 in0.0 mm 0.00 in0.0 mm
11:36 AM 78.3°F25.7°C 62.8°F17.1°C 59% 17.1 mph SE27.5 kmh SE 25.5 mph41.0 kmh 30.04 in1017.3 mb 0.00 in0.0 mm 0.00 in0.0 mm 0.00 in0.0 mm
11:31 AM 78.1°F25.6°C 64.0°F17.8°C 62% 13.0 mph SE20.9 kmh SE 19.3 mph31.1 kmh 30.04 in1017.3 mb 0.00 in0.0 mm 0.00 in0.0 mm 0.00 in0.0 mm
11:26 AM 78.4°F25.8°C 63.9°F17.7°C 61% 9.8 mph SE15.8 kmh SE 11.4 mph18.3 kmh 30.04 in1017.3 mb 0.00 in0.0 mm 0.00 in0.0 mm 0.00 in0.0 mm
11:21 AM 78.3°F25.7°C 63.7°F17.6°C 61% 14.8 mph SE23.8 kmh SE 20.6 mph33.2 kmh 30.05 in1017.6 mb 0.00 in0.0 mm 0.00 in0.0 mm 0.00 in0.0 mm
11:16 AM 77.0°F25.0°C 63.9°F17.7°C 64% 17.4 mph SE28.0 kmh SE 24.4 mph39.3 kmh 30.05 in1017.6 mb 0.00 in0.0 mm 0.00 in0.0 mm 0.00 in0.0 mm
11:11 AM 77.0°F25.0°C 63.0°F17.2°C 62% 14.8 mph SE23.8 kmh SE 24.4 mph39.3 kmh 30.05 in1017.6 mb 0.00 in0.0 mm 0.00 in0.0 mm 0.00 in0.0 mm
11:06 AM 77.5°F25.3°C 63.5°F17.5°C 62% 13.7 mph SE22.0 kmh SE 16.5 mph26.6 kmh 30.06 in1017.9 mb 0.00 in0.0 mm 0.00 in0.0 mm 0.00 in0.0 mm
11:01 AM 78.6°F25.9°C 64.9°F18.3°C 63% 16.7 mph SE26.9 kmh SE 24.4 mph39.3 kmh 30.06 in1017.9 mb 0.00 in0.0 mm 0.00 in0.0 mm 0.00 in0.0 mm
10:56 AM 78.8°F26.0°C 64.6°F18.1°C 62% 17.7 mph SE28.5 kmh SE 24.4 mph39.3 kmh 30.06 in1017.9 mb 0.00 in0.0 mm 0.00 in0.0 mm 0.00 in0.0 mm
10:51 AM 78.8°F26.0°C 63.7°F17.6°C 60% 16.1 mph SE25.9 kmh SE 21.7 mph34.9 kmh 30.06 in1017.9 mb 0.00 in0.0 mm 0.00 in0.0 mm 0.00 in0.0 mm
10:46 AM 79.0°F26.1°C 64.8°F18.2°C 62% 15.5 mph SE24.9 kmh SE 20.6 mph33.2 kmh 30.06 in1017.9 mb 0.00 in0.0 mm 0.00 in0.0 mm 0.00 in0.0 mm
10:41 AM 78.8°F26.0°C 65.1°F18.4°C 63% 16.4 mph SE26.4 kmh SE 21.7 mph34.9 kmh 30.06 in1017.9 mb 0.00 in0.0 mm 0.00 in0.0 mm 0.00 in0.0 mm
10:36 AM 77.7°F25.4°C 63.7°F17.6°C 62% 17.0 mph SE27.4 kmh SE 21.7 mph34.9 kmh 30.07 in1018.3 mb 0.00 in0.0 mm 0.00 in0.0 mm 0.00 in0.0 mm
10:31 AM 77.4°F25.2°C 63.7°F17.6°C 63% 17.7 mph SE28.5 kmh SE 22.8 mph36.7 kmh 30.07 in1018.3 mb 0.00 in0.0 mm 0.00 in0.0 mm 0.00 in0.0 mm
10:26 AM 77.2°F25.1°C 64.0°F17.8°C 64% 17.1 mph SE27.5 kmh SE 22.8 mph36.7 kmh 30.07 in1018.3 mb 0.00 in0.0 mm 0.00 in0.0 mm 0.00 in0.0 mm
10:21 AM 77.5°F25.3°C 63.9°F17.7°C 63% 16.1 mph SE25.9 kmh SE 20.6 mph33.2 kmh 30.07 in1018.3 mb 0.00 in0.0 mm 0.00 in0.0 mm 0.00 in0.0 mm
10:16 AM 77.5°F25.3°C 63.5°F17.5°C 62% 16.1 mph SE25.9 kmh SE 20.6 mph33.2 kmh 30.07 in1018.3 mb 0.00 in0.0 mm 0.00 in0.0 mm 0.00 in0.0 mm
10:11 AM 77.5°F25.3°C 64.4°F18.0°C 64% 16.4 mph SE26.4 kmh SE 20.6 mph33.2 kmh 30.07 in1018.3 mb 0.00 in0.0 mm 0.00 in0.0 mm 0.00 in0.0 mm
10:05 AM 77.5°F25.3°C 64.8°F18.2°C 65% 15.9 mph SE25.6 kmh SE 20.6 mph33.2 kmh 30.07 in1018.3 mb 0.00 in0.0 mm 0.00 in0.0 mm 0.00 in0.0 mm
10:01 AM 77.2°F25.1°C 64.4°F18.0°C 65% 15.9 mph SE25.6 kmh SE 20.6 mph33.2 kmh 30.07 in1018.3 mb 0.00 in0.0 mm 0.00 in0.0 mm 0.00 in0.0 mm
09:56 AM 77.2°F25.1°C 64.4°F18.0°C 65% 15.2 mph SE24.5 kmh SE 20.6 mph33.2 kmh 30.07 in1018.3 mb 0.00 in0.0 mm 0.00 in0.0 mm 0.00 in0.0 mm
09:51 AM 77.5°F25.3°C 64.4°F18.0°C 64% 13.1 mph SE21.1 kmh SE 18.1 mph29.1 kmh 30.07 in1018.3 mb 0.00 in0.0 mm 0.00 in0.0 mm 0.00 in0.0 mm
09:46 AM 77.7°F25.4°C 64.0°F17.8°C 63% 12.8 mph SE20.6 kmh SE 16.5 mph26.6 kmh 30.07 in1018.3 mb 0.00 in0.0 mm 0.00 in0.0 mm 0.00 in0.0 mm
09:41 AM 77.7°F25.4°C 64.9°F18.3°C 65% 13.4 mph SE21.6 kmh SE 16.5 mph26.6 kmh 30.07 in1018.3 mb 0.00 in0.0 mm 0.00 in0.0 mm 0.00 in0.0 mm
09:36 AM 77.2°F25.1°C 64.0°F17.8°C 64% 13.7 mph SE22.0 kmh SE 16.5 mph26.6 kmh 30.07 in1018.3 mb 0.00 in0.0 mm 0.00 in0.0 mm 0.00 in0.0 mm
09:31 AM 77.2°F25.1°C 64.4°F18.0°C 65% 13.0 mph SSE20.9 kmh SSE 16.5 mph26.6 kmh 30.07 in1018.3 mb 0.00 in0.0 mm 0.00 in0.0 mm 0.00 in0.0 mm
09:26 AM 77.2°F25.1°C 64.0°F17.8°C 64% 13.4 mph SE21.6 kmh SE 19.3 mph31.1 kmh 30.07 in1018.3 mb 0.00 in0.0 mm 0.00 in0.0 mm 0.00 in0.0 mm
09:21 AM 76.6°F24.8°C 63.1°F17.3°C 63% 15.2 mph SE24.5 kmh SE 20.6 mph33.2 kmh 30.07 in1018.3 mb 0.00 in0.0 mm 0.00 in0.0 mm 0.00 in0.0 mm
09:16 AM 76.6°F24.8°C 64.0°F17.8°C 65% 15.0 mph SE24.1 kmh SE 20.6 mph33.2 kmh 30.07 in1018.3 mb 0.00 in0.0 mm 0.00 in0.0 mm 0.00 in0.0 mm
09:11 AM 76.5°F24.7°C 63.9°F17.7°C 65% 12.5 mph SE20.1 kmh SE 18.1 mph29.1 kmh 30.07 in1018.3 mb 0.00 in0.0 mm 0.00 in0.0 mm 0.00 in0.0 mm
09:06 AM 76.5°F24.7°C 64.2°F17.9°C 66% 12.4 mph SSE20.0 kmh SSE 15.4 mph24.8 kmh 30.07 in1018.3 mb 0.00 in0.0 mm 0.00 in0.0 mm 0.00 in0.0 mm
09:01 AM 76.3°F24.6°C 64.0°F17.8°C 66% 13.2 mph SSE21.2 kmh SSE 15.4 mph24.8 kmh 30.07 in1018.3 mb 0.00 in0.0 mm 0.00 in0.0 mm 0.00 in0.0 mm
08:56 AM 76.5°F24.7°C 64.2°F17.9°C 66% 13.0 mph SSE20.9 kmh SSE 19.3 mph31.1 kmh 30.07 in1018.3 mb 0.00 in0.0 mm 0.00 in0.0 mm 0.00 in0.0 mm
08:51 AM 76.3°F24.6°C 64.0°F17.8°C 66% 11.4 mph SSE18.3 kmh SSE 19.3 mph31.1 kmh 30.07 in1018.3 mb 0.00 in0.0 mm 0.00 in0.0 mm 0.00 in0.0 mm
08:46 AM 76.1°F24.5°C 64.8°F18.2°C 68% 9.7 mph SSE15.6 kmh SSE 11.4 mph18.3 kmh 30.07 in1018.3 mb 0.00 in0.0 mm 0.00 in0.0 mm 0.00 in0.0 mm
08:41 AM 75.7°F24.3°C 63.5°F17.5°C 66% 9.1 mph SSE14.6 kmh SSE 11.4 mph18.3 kmh 30.06 in1017.9 mb 0.00 in0.0 mm 0.00 in0.0 mm 0.00 in0.0 mm
08:36 AM 75.7°F24.3°C 63.5°F17.5°C 66% 9.5 mph SSE15.3 kmh SSE 16.5 mph26.6 kmh 30.07 in1018.3 mb 0.00 in0.0 mm 0.00 in0.0 mm 0.00 in0.0 mm
08:31 AM 75.9°F24.4°C 64.2°F17.9°C 67% 9.6 mph SSE15.4 kmh SSE 16.5 mph26.6 kmh 30.07 in1018.3 mb 0.00 in0.0 mm 0.00 in0.0 mm 0.00 in0.0 mm
08:26 AM 75.7°F24.3°C 63.5°F17.5°C 66% 8.2 mph S13.2 kmh S 13.0 mph20.9 kmh 30.06 in1017.9 mb 0.00 in0.0 mm 0.00 in0.0 mm 0.00 in0.0 mm
08:21 AM 75.0°F23.9°C 64.0°F17.8°C 69% 7.8 mph S12.6 kmh S 11.4 mph18.3 kmh 30.06 in1017.9 mb 0.00 in0.0 mm 0.00 in0.0 mm 0.00 in0.0 mm
08:16 AM 74.7°F23.7°C 63.3°F17.4°C 68% 8.0 mph S12.9 kmh S 11.4 mph18.3 kmh 30.06 in1017.9 mb 0.00 in0.0 mm 0.00 in0.0 mm 0.00 in0.0 mm
08:11 AM 74.7°F23.7°C 63.9°F17.7°C 69% 8.9 mph S14.3 kmh S 11.4 mph18.3 kmh 30.06 in1017.9 mb 0.00 in0.0 mm 0.00 in0.0 mm 0.00 in0.0 mm
08:06 AM 74.1°F23.4°C 62.8°F17.1°C 68% 10.8 mph SSE17.4 kmh SSE 18.1 mph29.1 kmh 30.06 in1017.9 mb 0.00 in0.0 mm 0.00 in0.0 mm 0.00 in0.0 mm
08:01 AM 73.8°F23.2°C 63.0°F17.2°C 69% 11.2 mph SE18.0 kmh SE 18.1 mph29.1 kmh 30.06 in1017.9 mb 0.00 in0.0 mm 0.00 in0.0 mm 0.00 in0.0 mm
07:56 AM 73.9°F23.3°C 63.1°F17.3°C 69% 9.5 mph SE15.3 kmh SE 13.0 mph20.9 kmh 30.06 in1017.9 mb 0.00 in0.0 mm 0.00 in0.0 mm 0.00 in0.0 mm
07:51 AM 73.9°F23.3°C 63.5°F17.5°C 70% 6.8 mph SSE10.9 kmh SSE 13.0 mph20.9 kmh 30.06 in1017.9 mb 0.00 in0.0 mm 0.00 in0.0 mm 0.00 in0.0 mm
07:46 AM 73.8°F23.2°C 63.0°F17.2°C 69% 6.6 mph SSE10.6 kmh SSE 10.3 mph16.6 kmh 30.06 in1017.9 mb 0.00 in0.0 mm 0.00 in0.0 mm 0.00 in0.0 mm
07:41 AM 73.6°F23.1°C 63.1°F17.3°C 70% 7.6 mph S12.2 kmh S 10.3 mph16.6 kmh 30.05 in1017.6 mb 0.00 in0.0 mm 0.00 in0.0 mm 0.00 in0.0 mm
07:36 AM 73.2°F22.9°C 62.4°F16.9°C 69% 6.0 mph S9.7 kmh S 10.3 mph16.6 kmh 30.06 in1017.9 mb 0.00 in0.0 mm 0.00 in0.0 mm 0.00 in0.0 mm
07:31 AM 72.9°F22.7°C 62.4°F16.9°C 70% 5.5 mph SSE8.9 kmh SSE 8.9 mph14.3 kmh 30.05 in1017.6 mb 0.00 in0.0 mm 0.00 in0.0 mm 0.00 in0.0 mm
07:26 AM 72.7°F22.6°C 62.8°F17.1°C 71% 4.4 mph SE7.1 kmh SE 8.9 mph14.3 kmh 30.05 in1017.6 mb 0.00 in0.0 mm 0.00 in0.0 mm 0.00 in0.0 mm
07:21 AM 72.7°F22.6°C 63.1°F17.3°C 72% 3.0 mph E4.8 kmh E 5.2 mph8.4 kmh 30.05 in1017.6 mb 0.00 in0.0 mm 0.00 in0.0 mm 0.00 in0.0 mm
07:16 AM 72.3°F22.4°C 62.8°F17.1°C 72% 3.6 mph ESE5.8 kmh ESE 5.2 mph8.4 kmh 30.05 in1017.6 mb 0.00 in0.0 mm 0.00 in0.0 mm 0.00 in0.0 mm
07:11 AM 71.6°F22.0°C 62.1°F16.7°C 72% 4.3 mph ESE6.9 kmh ESE 8.9 mph14.3 kmh 30.05 in1017.6 mb 0.00 in0.0 mm 0.00 in0.0 mm 0.00 in0.0 mm
07:06 AM 71.2°F21.8°C 62.1°F16.7°C 73% 3.7 mph E6.0 kmh E 8.9 mph14.3 kmh 30.05 in1017.6 mb 0.00 in0.0 mm 0.00 in0.0 mm 0.00 in0.0 mm
07:01 AM 70.9°F21.6°C 62.1°F16.7°C 74% 4.0 mph SE6.4 kmh SE 6.3 mph10.1 kmh 30.04 in1017.3 mb 0.00 in0.0 mm 0.00 in0.0 mm 0.00 in0.0 mm
06:56 AM 70.3°F21.3°C 62.1°F16.7°C 75% 5.2 mph S8.4 kmh S 7.8 mph12.6 kmh 30.04 in1017.3 mb 0.00 in0.0 mm 0.00 in0.0 mm 0.00 in0.0 mm
06:51 AM 69.8°F21.0°C 61.5°F16.4°C 75% 4.8 mph SE7.7 kmh SE 7.8 mph12.6 kmh 30.04 in1017.3 mb 0.00 in0.0 mm 0.00 in0.0 mm 0.00 in0.0 mm
06:46 AM 69.4°F20.8°C 61.5°F16.4°C 76% 6.0 mph SE9.7 kmh SE 10.3 mph16.6 kmh 30.04 in1017.3 mb 0.00 in0.0 mm 0.00 in0.0 mm 0.00 in0.0 mm
06:41 AM 68.9°F20.5°C 61.0°F16.1°C 76% 5.5 mph SE8.9 kmh SE 10.3 mph16.6 kmh 30.04 in1017.3 mb 0.00 in0.0 mm 0.00 in0.0 mm 0.00 in0.0 mm
06:36 AM 68.4°F20.2°C 60.8°F16.0°C 77% 3.5 mph S5.6 kmh S 6.3 mph10.1 kmh 30.04 in1017.3 mb 0.00 in0.0 mm 0.00 in0.0 mm 0.00 in0.0 mm
06:31 AM 68.4°F20.2°C 60.8°F16.0°C 77% 4.2 mph SSE6.8 kmh SSE 6.3 mph10.1 kmh 30.04 in1017.3 mb 0.00 in0.0 mm 0.00 in0.0 mm 0.00 in0.0 mm
06:26 AM 68.2°F20.1°C 60.6°F15.9°C 77% 3.0 mph SE4.8 kmh SE 6.3 mph10.1 kmh 30.04 in1017.3 mb 0.00 in0.0 mm 0.00 in0.0 mm 0.00 in0.0 mm
06:21 AM 68.2°F20.1°C 61.0°F16.1°C 78% 2.1 mph SE3.4 kmh SE 6.3 mph10.1 kmh 30.03 in1016.9 mb 0.00 in0.0 mm 0.00 in0.0 mm 0.00 in0.0 mm
06:16 AM 68.2°F20.1°C 60.6°F15.9°C 77% 4.4 mph SSE7.1 kmh SSE 8.9 mph14.3 kmh 30.03 in1016.9 mb 0.00 in0.0 mm 0.00 in0.0 mm 0.00 in0.0 mm
06:11 AM 68.2°F20.1°C 60.6°F15.9°C 77% 4.4 mph SE7.1 kmh SE 8.9 mph14.3 kmh 30.03 in1016.9 mb 0.00 in0.0 mm 0.00 in0.0 mm 0.00 in0.0 mm
06:06 AM 68.2°F20.1°C 60.6°F15.9°C 77% 2.5 mph NE4.0 kmh NE 5.2 mph8.4 kmh 30.03 in1016.9 mb 0.00 in0.0 mm 0.00 in0.0 mm 0.00 in0.0 mm
06:01 AM 68.2°F20.1°C 60.6°F15.9°C 77% 3.0 mph NE4.8 kmh NE 6.3 mph10.1 kmh 30.02 in1016.6 mb 0.00 in0.0 mm 0.00 in0.0 mm 0.00 in0.0 mm
05:51 AM 68.4°F20.2°C 60.8°F16.0°C 77% 3.5 mph SE5.6 kmh SE 5.2 mph8.4 kmh 30.02 in1016.6 mb 0.00 in0.0 mm 0.00 in0.0 mm 0.00 in0.0 mm
05:41 AM 68.4°F20.2°C 60.8°F16.0°C 77% 2.6 mph SE4.2 kmh SE 5.2 mph8.4 kmh 30.02 in1016.6 mb 0.00 in0.0 mm 0.00 in0.0 mm 0.00 in0.0 mm
05:36 AM 68.5°F20.3°C 61.0°F16.1°C 77% 4.2 mph SSE6.8 kmh SSE 6.3 mph10.1 kmh 30.02 in1016.6 mb 0.00 in0.0 mm 0.00 in0.0 mm 0.00 in0.0 mm
05:31 AM 68.4°F20.2°C 60.8°F16.0°C 77% 3.9 mph SE6.3 kmh SE 6.3 mph10.1 kmh 30.02 in1016.6 mb 0.00 in0.0 mm 0.00 in0.0 mm 0.00 in0.0 mm
05:26 AM 68.5°F20.3°C 61.0°F16.1°C 77% 4.0 mph SE6.4 kmh SE 6.3 mph10.1 kmh 30.01 in1016.3 mb 0.00 in0.0 mm 0.00 in0.0 mm 0.00 in0.0 mm
05:21 AM 68.7°F20.4°C 60.8°F16.0°C 76% 4.0 mph SE6.4 kmh SE 6.3 mph10.1 kmh 30.01 in1016.3 mb 0.00 in0.0 mm 0.00 in0.0 mm 0.00 in0.0 mm
05:11 AM 68.9°F20.5°C 61.0°F16.1°C 76% 2.9 mph SSE4.7 kmh SSE 5.2 mph8.4 kmh 30.01 in1016.3 mb 0.00 in0.0 mm 0.00 in0.0 mm 0.00 in0.0 mm
05:06 AM 68.9°F20.5°C 61.0°F16.1°C 76% 3.4 mph SE5.5 kmh SE 5.2 mph8.4 kmh 30.01 in1016.3 mb 0.00 in0.0 mm 0.00 in0.0 mm 0.00 in0.0 mm
04:56 AM 69.1°F20.6°C 61.2°F16.2°C 76% 3.2 mph S5.1 kmh S 5.2 mph8.4 kmh 30.01 in1016.3 mb 0.00 in0.0 mm 0.00 in0.0 mm 0.00 in0.0 mm
04:51 AM 69.4°F20.8°C 61.5°F16.4°C 76% 4.9 mph S7.9 kmh S 7.8 mph12.6 kmh 30.01 in1016.3 mb 0.00 in0.0 mm 0.00 in0.0 mm 0.00 in0.0 mm
04:46 AM 69.1°F20.6°C 61.2°F16.2°C 76% 4.9 mph SE7.9 kmh SE 7.8 mph12.6 kmh 30.01 in1016.3 mb 0.00 in0.0 mm 0.00 in0.0 mm 0.00 in0.0 mm
04:41 AM 69.1°F20.6°C 61.2°F16.2°C 76% 3.9 mph SSE6.3 kmh SSE 6.3 mph10.1 kmh 30.01 in1016.3 mb 0.00 in0.0 mm 0.00 in0.0 mm 0.00 in0.0 mm
04:36 AM 69.1°F20.6°C 61.2°F16.2°C 76% 3.0 mph SSW4.8 kmh SSW 6.3 mph10.1 kmh 30.01 in1016.3 mb 0.00 in0.0 mm 0.00 in0.0 mm 0.00 in0.0 mm
04:31 AM 69.1°F20.6°C 61.2°F16.2°C 76% 2.3 mph SW3.7 kmh SW 3.8 mph6.1 kmh 30.00 in1015.9 mb 0.00 in0.0 mm 0.00 in0.0 mm 0.00 in0.0 mm
04:26 AM 69.1°F20.6°C 61.2°F16.2°C 76% 3.3 mph S5.3 kmh S 3.8 mph6.1 kmh 30.00 in1015.9 mb 0.00 in0.0 mm 0.00 in0.0 mm 0.00 in0.0 mm
04:21 AM 69.1°F20.6°C 61.2°F16.2°C 76% 4.3 mph SSE6.9 kmh SSE 6.3 mph10.1 kmh 30.01 in1016.3 mb 0.00 in0.0 mm 0.00 in0.0 mm 0.00 in0.0 mm
04:16 AM 68.7°F20.4°C 61.2°F16.2°C 77% 3.7 mph SSE6.0 kmh SSE 6.3 mph10.1 kmh 30.00 in1015.9 mb 0.00 in0.0 mm 0.00 in0.0 mm 0.00 in0.0 mm
04:06 AM 68.7°F20.4°C 61.5°F16.4°C 78% 3.9 mph SE6.3 kmh SE 6.3 mph10.1 kmh 30.00 in1015.9 mb 0.00 in0.0 mm 0.00 in0.0 mm 0.00 in0.0 mm
04:01 AM 68.7°F20.4°C 61.5°F16.4°C 78% 4.3 mph SE6.9 kmh SE 6.3 mph10.1 kmh 30.00 in1015.9 mb 0.00 in0.0 mm 0.00 in0.0 mm 0.00 in0.0 mm
03:56 AM 68.4°F20.2°C 61.5°F16.4°C 79% 3.4 mph SSE5.5 kmh SSE 6.3 mph10.1 kmh 30.01 in1016.3 mb 0.00 in0.0 mm 0.00 in0.0 mm 0.00 in0.0 mm
03:51 AM 68.2°F20.1°C 61.7°F16.5°C 80% 2.6 mph S4.2 kmh S 6.3 mph10.1 kmh 30.01 in1016.3 mb 0.00 in0.0 mm 0.00 in0.0 mm 0.00 in0.0 mm
03:46 AM 68.2°F20.1°C 62.1°F16.7°C 81% 3.2 mph WNW5.1 kmh WNW 5.2 mph8.4 kmh 30.01 in1016.3 mb 0.00 in0.0 mm 0.00 in0.0 mm 0.00 in0.0 mm
03:41 AM 68.2°F20.1°C 62.1°F16.7°C 81% 1.9 mph NW3.1 kmh NW 2.7 mph4.3 kmh 30.01 in1016.3 mb 0.00 in0.0 mm 0.00 in0.0 mm 0.00 in0.0 mm
03:36 AM 68.5°F20.3°C 62.1°F16.7°C 80% 1.7 mph NE2.7 kmh NE 2.7 mph4.3 kmh 30.01 in1016.3 mb 0.00 in0.0 mm 0.00 in0.0 mm 0.00 in0.0 mm
03:31 AM 68.7°F20.4°C 62.2°F16.8°C 80% 3.8 mph SE6.1 kmh SE 7.8 mph12.6 kmh 30.01 in1016.3 mb 0.00 in0.0 mm 0.00 in0.0 mm 0.00 in0.0 mm
03:26 AM 68.9°F20.5°C 62.4°F16.9°C 80% 4.2 mph SE6.8 kmh SE 7.8 mph12.6 kmh 30.01 in1016.3 mb 0.00 in0.0 mm 0.00 in0.0 mm 0.00 in0.0 mm
03:21 AM 68.9°F20.5°C 62.4°F16.9°C 80% 4.3 mph SE6.9 kmh SE 5.2 mph8.4 kmh 30.01 in1016.3 mb 0.00 in0.0 mm 0.00 in0.0 mm 0.00 in0.0 mm
03:16 AM 69.4°F20.8°C 62.6°F17.0°C 79% 5.8 mph SE9.3 kmh SE 8.9 mph14.3 kmh 30.01 in1016.3 mb 0.00 in0.0 mm 0.00 in0.0 mm 0.00 in0.0 mm
03:11 AM 69.6°F20.9°C 62.4°F16.9°C 78% 5.7 mph SE9.2 kmh SE 8.9 mph14.3 kmh 30.01 in1016.3 mb 0.00 in0.0 mm 0.00 in0.0 mm 0.00 in0.0 mm
03:06 AM 69.6°F20.9°C 62.4°F16.9°C 78% 7.0 mph SE11.3 kmh SE 11.4 mph18.3 kmh 30.01 in1016.3 mb 0.00 in0.0 mm 0.00 in0.0 mm 0.00 in0.0 mm
03:01 AM 69.6°F20.9°C 62.4°F16.9°C 78% 8.3 mph SSE13.4 kmh SSE 11.4 mph18.3 kmh 30.01 in1016.3 mb 0.00 in0.0 mm 0.00 in0.0 mm 0.00 in0.0 mm
02:56 AM 69.4°F20.8°C 62.2°F16.8°C 78% 6.8 mph SSE10.9 kmh SSE 11.4 mph18.3 kmh 30.01 in1016.3 mb 0.00 in0.0 mm 0.00 in0.0 mm 0.00 in0.0 mm
02:51 AM 68.9°F20.5°C 62.1°F16.7°C 79% 4.1 mph SE6.6 kmh SE 6.3 mph10.1 kmh 30.02 in1016.6 mb 0.00 in0.0 mm 0.00 in0.0 mm 0.00 in0.0 mm
02:46 AM 69.6°F20.9°C 62.4°F16.9°C 78% 4.9 mph SE7.9 kmh SE 8.9 mph14.3 kmh 30.02 in1016.6 mb 0.00 in0.0 mm 0.00 in0.0 mm 0.00 in0.0 mm
02:41 AM 70.0°F21.1°C 62.4°F16.9°C 77% 6.7 mph SE10.8 kmh SE 8.9 mph14.3 kmh 30.02 in1016.6 mb 0.00 in0.0 mm 0.00 in0.0 mm 0.00 in0.0 mm
02:36 AM 70.2°F21.2°C 62.6°F17.0°C 77% 6.9 mph SE11.1 kmh SE 8.9 mph14.3 kmh 30.02 in1016.6 mb 0.00 in0.0 mm 0.00 in0.0 mm 0.00 in0.0 mm
02:31 AM 70.3°F21.3°C 62.4°F16.9°C 76% 6.3 mph SE10.1 kmh SE 8.9 mph14.3 kmh 30.02 in1016.6 mb 0.00 in0.0 mm 0.00 in0.0 mm 0.00 in0.0 mm
02:26 AM 70.3°F21.3°C 62.4°F16.9°C 76% 7.2 mph SE11.6 kmh SE 10.3 mph16.6 kmh 30.02 in1016.6 mb 0.00 in0.0 mm 0.00 in0.0 mm 0.00 in0.0 mm
02:21 AM 70.7°F21.5°C 62.4°F16.9°C 75% 7.9 mph SE12.7 kmh SE 10.3 mph16.6 kmh 30.02 in1016.6 mb 0.00 in0.0 mm 0.00 in0.0 mm 0.00 in0.0 mm
02:11 AM 70.9°F21.6°C 62.6°F17.0°C 75% 8.7 mph SE14.0 kmh SE 13.0 mph20.9 kmh 30.02 in1016.6 mb 0.00 in0.0 mm 0.00 in0.0 mm 0.00 in0.0 mm
02:06 AM 70.7°F21.5°C 62.4°F16.9°C 75% 6.5 mph SE10.5 kmh SE 8.9 mph14.3 kmh 30.03 in1016.9 mb 0.00 in0.0 mm 0.00 in0.0 mm 0.00 in0.0 mm
02:01 AM 70.7°F21.5°C 62.4°F16.9°C 75% 5.4 mph SE8.7 kmh SE 6.3 mph10.1 kmh 30.03 in1016.9 mb 0.00 in0.0 mm 0.00 in0.0 mm 0.00 in0.0 mm
01:56 AM 70.9°F21.6°C 62.1°F16.7°C 74% 5.2 mph SE8.4 kmh SE 6.3 mph10.1 kmh 30.03 in1016.9 mb 0.00 in0.0 mm 0.00 in0.0 mm 0.00 in0.0 mm
01:51 AM 71.1°F21.7°C 62.2°F16.8°C 74% 7.2 mph SE11.6 kmh SE 8.9 mph14.3 kmh 30.03 in1016.9 mb 0.00 in0.0 mm 0.00 in0.0 mm 0.00 in0.0 mm
01:46 AM 71.2°F21.8°C 62.4°F16.9°C 74% 9.0 mph SE14.5 kmh SE 11.4 mph18.3 kmh 30.03 in1016.9 mb 0.00 in0.0 mm 0.00 in0.0 mm 0.00 in0.0 mm
01:41 AM 71.2°F21.8°C 62.4°F16.9°C 74% 9.1 mph SSE14.6 kmh SSE 11.4 mph18.3 kmh 30.04 in1017.3 mb 0.00 in0.0 mm 0.00 in0.0 mm 0.00 in0.0 mm
01:36 AM 71.1°F21.7°C 62.8°F17.1°C 75% 8.7 mph SSE14.0 kmh SSE 13.0 mph20.9 kmh 30.04 in1017.3 mb 0.00 in0.0 mm 0.00 in0.0 mm 0.00 in0.0 mm
01:26 AM 71.2°F21.8°C 63.0°F17.2°C 75% 7.5 mph SSE12.1 kmh SSE 8.9 mph14.3 kmh 30.04 in1017.3 mb 0.00 in0.0 mm 0.00 in0.0 mm 0.00 in0.0 mm
01:21 AM 71.1°F21.7°C 62.8°F17.1°C 75% 7.7 mph SE12.4 kmh SE 8.9 mph14.3 kmh 30.04 in1017.3 mb 0.00 in0.0 mm 0.00 in0.0 mm 0.00 in0.0 mm
01:06 AM 71.1°F21.7°C 63.1°F17.3°C 76% 8.6 mph SE13.8 kmh SE 13.0 mph20.9 kmh 30.04 in1017.3 mb 0.00 in0.0 mm 0.00 in0.0 mm 0.00 in0.0 mm
01:01 AM 71.1°F21.7°C 63.1°F17.3°C 76% 9.7 mph SE15.6 kmh SE 11.4 mph18.3 kmh 30.05 in1017.6 mb 0.00 in0.0 mm 0.00 in0.0 mm 0.00 in0.0 mm
12:56 AM 70.9°F21.6°C 63.0°F17.2°C 76% 9.1 mph SE14.6 kmh SE 15.4 mph24.8 kmh 30.05 in1017.6 mb 0.00 in0.0 mm 0.00 in0.0 mm 0.00 in0.0 mm
12:51 AM 70.7°F21.5°C 63.1°F17.3°C 77% 6.3 mph SE10.1 kmh SE 15.4 mph24.8 kmh 30.05 in1017.6 mb 0.00 in0.0 mm 0.00 in0.0 mm 0.00 in0.0 mm
12:46 AM 70.7°F21.5°C 63.5°F17.5°C 78% 5.1 mph SE8.2 kmh SE 11.4 mph18.3 kmh 30.05 in1017.6 mb 0.00 in0.0 mm 0.00 in0.0 mm 0.00 in0.0 mm
12:41 AM 70.7°F21.5°C 63.1°F17.3°C 77% 7.2 mph SE11.6 kmh SE 10.3 mph16.6 kmh 30.05 in1017.6 mb 0.00 in0.0 mm 0.00 in0.0 mm 0.00 in0.0 mm
12:36 AM 70.7°F21.5°C 63.1°F17.3°C 77% 7.3 mph SE11.7 kmh SE 10.3 mph16.6 kmh 30.06 in1017.9 mb 0.00 in0.0 mm 0.00 in0.0 mm 0.00 in0.0 mm
12:31 AM 70.2°F21.2°C 63.0°F17.2°C 78% 5.9 mph SE9.5 kmh SE 8.9 mph14.3 kmh 30.06 in1017.9 mb 0.00 in0.0 mm 0.00 in0.0 mm 0.00 in0.0 mm
12:26 AM 69.8°F21.0°C 63.0°F17.2°C 79% 5.1 mph SSE8.2 kmh SSE 7.8 mph12.6 kmh 30.06 in1017.9 mb 0.00 in0.0 mm 0.00 in0.0 mm 0.00 in0.0 mm
12:21 AM 69.6°F20.9°C 63.1°F17.3°C 80% 3.7 mph SE6.0 kmh SE 7.8 mph12.6 kmh 30.06 in1017.9 mb 0.00 in0.0 mm 0.00 in0.0 mm 0.00 in0.0 mm
12:16 AM 69.4°F20.8°C 63.3°F17.4°C 81% 2.0 mph SE3.2 kmh SE 5.2 mph8.4 kmh 30.06 in1017.9 mb 0.00 in0.0 mm 0.00 in0.0 mm 0.00 in0.0 mm
12:11 AM 68.7°F20.4°C 63.0°F17.2°C 82% 1.7 mph S2.7 kmh S 5.2 mph8.4 kmh 30.06 in1017.9 mb 0.00 in0.0 mm 0.00 in0.0 mm 0.00 in0.0 mm
12:06 AM 68.5°F20.3°C 63.1°F17.3°C 83% 2.3 mph SW3.7 kmh SW 3.8 mph6.1 kmh 30.06 in1017.9 mb 0.00 in0.0 mm 0.00 in0.0 mm 0.00 in0.0 mm
12:01 AM 68.4°F20.2°C 63.3°F17.4°C 84% 1.8 mph SW2.9 kmh SW 3.8 mph6.1 kmh 30.06 in1017.9 mb 0.00 in0.0 mm 0.00 in0.0 mm 0.00 in0.0 mm